sensor_id;sensor_type;location;lat;lon;timestamp;pressure;altitude;pressure_sealevel;temperature;humidity
47374;BME280;33123;50.118;10.272;2023-02-10T00:00:16;99398.72;;;-2.25;62.23
47374;BME280;33123;50.118;10.272;2023-02-10T00:02:44;99395.19;;;-2.24;62.08
47374;BME280;33123;50.118;10.272;2023-02-10T00:05:11;99406.47;;;-2.25;61.88
47374;BME280;33123;50.118;10.272;2023-02-10T00:07:37;99404.97;;;-2.27;61.95
47374;BME280;33123;50.118;10.272;2023-02-10T00:10:05;99416.34;;;-2.30;62.18
47374;BME280;33123;50.118;10.272;2023-02-10T00:12:31;99418.47;;;-2.35;62.65
47374;BME280;33123;50.118;10.272;2023-02-10T00:15:01;99423.97;;;-2.40;62.54
47374;BME280;33123;50.118;10.272;2023-02-10T00:17:28;99424.94;;;-2.41;63.07
47374;BME280;33123;50.118;10.272;2023-02-10T00:19:55;99419.06;;;-2.43;62.96
47374;BME280;33123;50.118;10.272;2023-02-10T00:22:22;99426.94;;;-2.44;62.45
47374;BME280;33123;50.118;10.272;2023-02-10T00:24:49;99433.16;;;-2.47;62.92
47374;BME280;33123;50.118;10.272;2023-02-10T00:27:15;99427.41;;;-2.50;62.77
47374;BME280;33123;50.118;10.272;2023-02-10T00:29:48;99431.75;;;-2.51;63.19
47374;BME280;33123;50.118;10.272;2023-02-10T00:32:14;99437.03;;;-2.52;62.42
47374;BME280;33123;50.118;10.272;2023-02-10T00:34:42;99432.81;;;-2.53;62.67
47374;BME280;33123;50.118;10.272;2023-02-10T00:37:10;99433.78;;;-2.54;62.32
47374;BME280;33123;50.118;10.272;2023-02-10T00:39:37;99418.78;;;-2.72;62.46
47374;BME280;33123;50.118;10.272;2023-02-10T00:42:04;99440.91;;;-2.58;62.67
47374;BME280;33123;50.118;10.272;2023-02-10T00:44:30;99442.81;;;-2.60;62.38
47374;BME280;33123;50.118;10.272;2023-02-10T00:46:57;99441.28;;;-2.62;62.42
47374;BME280;33123;50.118;10.272;2023-02-10T00:49:23;99449.16;;;-2.64;62.00
47374;BME280;33123;50.118;10.272;2023-02-10T00:51:50;99449.28;;;-2.66;62.35
47374;BME280;33123;50.118;10.272;2023-02-10T00:54:18;99447.59;;;-2.67;62.46
47374;BME280;33123;50.118;10.272;2023-02-10T00:56:44;99455.59;;;-2.70;62.50
47374;BME280;33123;50.118;10.272;2023-02-10T00:59:11;99457.38;;;-2.70;63.07
47374;BME280;33123;50.118;10.272;2023-02-10T01:01:38;99460.97;;;-2.73;62.82
47374;BME280;33123;50.118;10.272;2023-02-10T01:04:05;99453.16;;;-2.71;62.73
47374;BME280;33123;50.118;10.272;2023-02-10T01:06:31;99459.22;;;-2.72;63.11
47374;BME280;33123;50.118;10.272;2023-02-10T01:08:58;99458.41;;;-2.73;63.09
47374;BME280;33123;50.118;10.272;2023-02-10T01:11:26;99464.38;;;-2.72;62.85
47374;BME280;33123;50.118;10.272;2023-02-10T01:13:52;99459.22;;;-2.72;62.15
47374;BME280;33123;50.118;10.272;2023-02-10T01:16:19;99460.97;;;-2.73;62.41
47374;BME280;33123;50.118;10.272;2023-02-10T01:18:46;99461.13;;;-2.74;62.47
47374;BME280;33123;50.118;10.272;2023-02-10T01:21:14;99466.28;;;-2.74;62.44
47374;BME280;33123;50.118;10.272;2023-02-10T01:23:41;99453.50;;;-2.76;63.26
47374;BME280;33123;50.118;10.272;2023-02-10T01:26:08;99457.13;;;-2.78;63.44
47374;BME280;33123;50.118;10.272;2023-02-10T01:28:37;99462.41;;;-2.80;62.66
47374;BME280;33123;50.118;10.272;2023-02-10T01:31:04;99472.03;;;-2.82;62.49
47374;BME280;33123;50.118;10.272;2023-02-10T01:33:32;99466.28;;;-2.85;63.29
47374;BME280;33123;50.118;10.272;2023-02-10T01:36:02;99457.72;;;-2.86;63.13
47374;BME280;33123;50.118;10.272;2023-02-10T01:38:29;99457.72;;;-2.86;63.53
47374;BME280;33123;50.118;10.272;2023-02-10T01:40:56;99455.94;;;-2.85;63.44
47374;BME280;33123;50.118;10.272;2023-02-10T01:43:23;99459.59;;;-2.88;63.11
47374;BME280;33123;50.118;10.272;2023-02-10T01:45:51;99459.81;;;-2.91;62.99
47374;BME280;33123;50.118;10.272;2023-02-10T01:48:18;99461.72;;;-2.93;62.92
47374;BME280;33123;50.118;10.272;2023-02-10T01:50:48;99456.56;;;-2.93;63.19
47374;BME280;33123;50.118;10.272;2023-02-10T01:53:18;99454.91;;;-2.94;63.09
47374;BME280;33123;50.118;10.272;2023-02-10T01:55:48;99458.41;;;-2.95;63.45
47374;BME280;33123;50.118;10.272;2023-02-10T01:58:18;99465.44;;;-2.97;63.36
47374;BME280;33123;50.118;10.272;2023-02-10T02:00:46;99471.56;;;-2.98;62.95
47374;BME280;33123;50.118;10.272;2023-02-10T02:03:15;99477.66;;;-2.99;62.82
47374;BME280;33123;50.118;10.272;2023-02-10T02:05:42;99486.44;;;-3.02;62.80
47374;BME280;33123;50.118;10.272;2023-02-10T02:08:11;99483.16;;;-3.04;63.39
47374;BME280;33123;50.118;10.272;2023-02-10T02:10:52;99478.13;;;-3.05;63.10
47374;BME280;33123;50.118;10.272;2023-02-10T02:13:30;99481.38;;;-3.03;63.20
47374;BME280;33123;50.118;10.272;2023-02-10T02:16:04;99477.88;;;-3.02;62.87
47374;BME280;33123;50.118;10.272;2023-02-10T02:18:38;99474.34;;;-3.01;62.88
47374;BME280;33123;50.118;10.272;2023-02-10T02:21:28;99482.81;;;-2.99;62.95
47374;BME280;33123;50.118;10.272;2023-02-10T02:24:15;99481.88;;;-2.98;62.98
47374;BME280;33123;50.118;10.272;2023-02-10T02:26:55;99473.31;;;-2.99;62.88
47374;BME280;33123;50.118;10.272;2023-02-10T02:29:46;99476.84;;;-3.00;62.73
47374;BME280;33123;50.118;10.272;2023-02-10T02:32:19;99445.50;;;-3.17;62.32
47374;BME280;33123;50.118;10.272;2023-02-10T02:34:50;99472.97;;;-3.05;62.51
47374;BME280;33123;50.118;10.272;2023-02-10T02:37:21;99474.59;;;-3.04;62.87
47374;BME280;33123;50.118;10.272;2023-02-10T02:39:50;99479.75;;;-3.04;63.27
47374;BME280;33123;50.118;10.272;2023-02-10T02:42:20;99474.59;;;-3.04;62.91
47374;BME280;33123;50.118;10.272;2023-02-10T02:44:50;99475.41;;;-3.04;63.10
47374;BME280;33123;50.118;10.272;2023-02-10T02:47:29;99478.34;;;-3.08;63.02
47374;BME280;33123;50.118;10.272;2023-02-10T02:50:06;99491.00;;;-3.05;62.22
47374;BME280;33123;50.118;10.272;2023-02-10T02:52:48;99485.13;;;-3.07;62.35
47374;BME280;33123;50.118;10.272;2023-02-10T02:55:26;99485.00;;;-3.06;62.92
47374;BME280;33123;50.118;10.272;2023-02-10T02:58:02;99482.34;;;-3.04;63.16
47374;BME280;33123;50.118;10.272;2023-02-10T03:00:31;99474.59;;;-3.04;62.73
47374;BME280;33123;50.118;10.272;2023-02-10T03:03:01;99485.00;;;-3.06;62.70
47374;BME280;33123;50.118;10.272;2023-02-10T03:05:30;99482.56;;;-3.07;62.43
47374;BME280;33123;50.118;10.272;2023-02-10T03:07:57;99490.28;;;-3.07;62.63
47374;BME280;33123;50.118;10.272;2023-02-10T03:10:24;99485.25;;;-3.09;63.06
47374;BME280;33123;50.118;10.272;2023-02-10T03:12:51;99482.06;;;-3.12;62.83
47374;BME280;33123;50.118;10.272;2023-02-10T03:15:17;99476.91;;;-3.12;63.42
47374;BME280;33123;50.118;10.272;2023-02-10T03:17:44;99479.50;;;-3.12;64.28
47374;BME280;33123;50.118;10.272;2023-02-10T03:20:12;99481.97;;;-3.11;64.00
47374;BME280;33123;50.118;10.272;2023-02-10T03:22:38;99489.72;;;-3.11;63.47
47374;BME280;33123;50.118;10.272;2023-02-10T03:25:07;99485.38;;;-3.10;63.63
47374;BME280;33123;50.118;10.272;2023-02-10T03:27:34;99492.16;;;-3.09;63.55
47374;BME280;33123;50.118;10.272;2023-02-10T03:30:00;99485.25;;;-3.09;63.59
47374;BME280;33123;50.118;10.272;2023-02-10T03:32:27;99489.47;;;-3.08;63.21
47374;BME280;33123;50.118;10.272;2023-02-10T03:34:53;99498.16;;;-3.09;63.00
47374;BME280;33123;50.118;10.272;2023-02-10T03:37:21;99488.03;;;-3.12;63.64
47374;BME280;33123;50.118;10.272;2023-02-10T03:39:48;99489.81;;;-3.12;63.75
47374;BME280;33123;50.118;10.272;2023-02-10T03:42:14;99494.75;;;-3.09;63.38
47374;BME280;33123;50.118;10.272;2023-02-10T03:44:41;99502.50;;;-2.98;63.55
47374;BME280;33123;50.118;10.272;2023-02-10T03:47:08;99499.47;;;-2.92;63.61
47374;BME280;33123;50.118;10.272;2023-02-10T03:49:34;99495.47;;;-2.85;64.14
47374;BME280;33123;50.118;10.272;2023-02-10T03:52:01;99493.84;;;-2.75;64.59
47374;BME280;33123;50.118;10.272;2023-02-10T03:54:29;99486.31;;;-2.67;64.16
47374;BME280;33123;50.118;10.272;2023-02-10T03:56:56;99492.66;;;-2.59;64.22
47374;BME280;33123;50.118;10.272;2023-02-10T03:59:23;99493.97;;;-2.54;64.28
47374;BME280;33123;50.118;10.272;2023-02-10T04:01:50;99493.72;;;-2.51;64.13
47374;BME280;33123;50.118;10.272;2023-02-10T04:04:17;99498.53;;;-2.46;63.80
47374;BME280;33123;50.118;10.272;2023-02-10T04:06:44;99472.16;;;-2.61;62.85
47374;BME280;33123;50.118;10.272;2023-02-10T04:09:10;99502.88;;;-2.47;62.78
47374;BME280;33123;50.118;10.272;2023-02-10T04:11:38;99508.03;;;-2.47;62.42
47374;BME280;33123;50.118;10.272;2023-02-10T04:14:05;99508.16;;;-2.48;62.40
47374;BME280;33123;50.118;10.272;2023-02-10T04:16:31;99508.38;;;-2.51;63.39
47374;BME280;33123;50.118;10.272;2023-02-10T04:18:59;99500.88;;;-2.54;62.72
47374;BME280;33123;50.118;10.272;2023-02-10T04:21:25;99502.41;;;-2.63;62.32
47374;BME280;33123;50.118;10.272;2023-02-10T04:23:52;99509.91;;;-2.60;62.10
47374;BME280;33123;50.118;10.272;2023-02-10T04:26:19;99522.09;;;-2.62;62.00
47374;BME280;33123;50.118;10.272;2023-02-10T04:28:47;99522.34;;;-2.65;62.45
47374;BME280;33123;50.118;10.272;2023-02-10T04:31:14;99513.06;;;-2.68;62.77
47374;BME280;33123;50.118;10.272;2023-02-10T04:33:41;99523.38;;;-2.68;62.71
47374;BME280;33123;50.118;10.272;2023-02-10T04:36:08;99526.91;;;-2.69;63.38
47374;BME280;33123;50.118;10.272;2023-02-10T04:38:35;99522.34;;;-2.65;63.60
47374;BME280;33123;50.118;10.272;2023-02-10T04:41:02;99526.22;;;-2.59;63.49
47374;BME280;33123;50.118;10.272;2023-02-10T04:43:30;99532.56;;;-2.52;64.07
47374;BME280;33123;50.118;10.272;2023-02-10T04:45:58;99540.44;;;-2.43;64.15
47374;BME280;33123;50.118;10.272;2023-02-10T04:48:24;99539.00;;;-2.35;64.45
47374;BME280;33123;50.118;10.272;2023-02-10T04:50:51;99547.00;;;-2.27;64.89
47374;BME280;33123;50.118;10.272;2023-02-10T04:53:19;99547.09;;;-2.18;64.63
47374;BME280;33123;50.118;10.272;2023-02-10T04:55:46;99550.72;;;-2.09;65.15
47374;BME280;33123;50.118;10.272;2023-02-10T04:58:12;99555.19;;;-2.00;65.48
47374;BME280;33123;50.118;10.272;2023-02-10T05:00:39;99552.69;;;-1.90;65.27
47374;BME280;33123;50.118;10.272;2023-02-10T05:03:07;99540.69;;;-1.80;64.79
47374;BME280;33123;50.118;10.272;2023-02-10T05:05:34;99541.81;;;-1.73;64.13
47374;BME280;33123;50.118;10.272;2023-02-10T05:08:01;99544.84;;;-1.68;64.19
47374;BME280;33123;50.118;10.272;2023-02-10T05:10:27;99556.59;;;-1.64;64.09
47374;BME280;33123;50.118;10.272;2023-02-10T05:12:54;99556.25;;;-1.59;63.81
47374;BME280;33123;50.118;10.272;2023-02-10T05:15:21;99560.09;;;-1.53;63.48
47374;BME280;33123;50.118;10.272;2023-02-10T05:17:48;99558.78;;;-1.48;64.64
47374;BME280;33123;50.118;10.272;2023-02-10T05:20:16;99556.78;;;-1.44;64.04
47374;BME280;33123;50.118;10.272;2023-02-10T05:22:42;99563.78;;;-1.35;64.68
47374;BME280;33123;50.118;10.272;2023-02-10T05:25:09;99575.28;;;-1.28;64.94
47374;BME280;33123;50.118;10.272;2023-02-10T05:27:36;99572.22;;;-1.22;64.71
47374;BME280;33123;50.118;10.272;2023-02-10T05:30:04;99574.97;;;-1.14;64.63
47374;BME280;33123;50.118;10.272;2023-02-10T05:32:31;99570.94;;;-1.07;64.97
47374;BME280;33123;50.118;10.272;2023-02-10T05:34:58;99569.25;;;-0.96;65.12
47374;BME280;33123;50.118;10.272;2023-02-10T05:37:26;99576.13;;;-0.86;64.29
47374;BME280;33123;50.118;10.272;2023-02-10T05:39:53;99569.50;;;-0.78;64.13
47374;BME280;33123;50.118;10.272;2023-02-10T05:42:19;99574.16;;;-0.72;63.85
47374;BME280;33123;50.118;10.272;2023-02-10T05:44:46;99583.19;;;-0.67;64.00
47374;BME280;33123;50.118;10.272;2023-02-10T05:47:12;99576.13;;;-0.65;64.86
47374;BME280;33123;50.118;10.272;2023-02-10T05:49:39;99582.41;;;-0.58;64.44
47374;BME280;33123;50.118;10.272;2023-02-10T05:52:05;99581.91;;;-0.51;64.56
47374;BME280;33123;50.118;10.272;2023-02-10T05:54:33;99582.19;;;-0.45;64.48
47374;BME280;33123;50.118;10.272;2023-02-10T05:57:01;99585.94;;;-0.38;64.10
47374;BME280;33123;50.118;10.272;2023-02-10T05:59:28;99582.81;;;-0.32;64.85
47374;BME280;33123;50.118;10.272;2023-02-10T06:01:54;99581.50;;;-0.26;63.49
47374;BME280;33123;50.118;10.272;2023-02-10T06:04:21;99586.38;;;-0.23;63.61
47374;BME280;33123;50.118;10.272;2023-02-10T06:06:48;99580.53;;;-0.25;63.58
47374;BME280;33123;50.118;10.272;2023-02-10T06:09:14;99591.31;;;-0.20;63.93
47374;BME280;33123;50.118;10.272;2023-02-10T06:11:42;99593.63;;;-0.17;63.41
47374;BME280;33123;50.118;10.272;2023-02-10T06:14:09;99585.88;;;-0.17;63.46
47374;BME280;33123;50.118;10.272;2023-02-10T06:16:36;99596.13;;;-0.15;63.58
47374;BME280;33123;50.118;10.272;2023-02-10T06:19:02;99601.16;;;-0.14;63.51
47374;BME280;33123;50.118;10.272;2023-02-10T06:21:29;99599.25;;;-0.12;64.16
47374;BME280;33123;50.118;10.272;2023-02-10T06:23:56;99600.63;;;-0.08;63.98
47374;BME280;33123;50.118;10.272;2023-02-10T06:26:22;99592.47;;;-0.03;64.33
47374;BME280;33123;50.118;10.272;2023-02-10T06:28:51;99586.19;;;-0.01;64.29
47374;BME280;33123;50.118;10.272;2023-02-10T06:31:17;99594.81;;;0.00;63.83
47374;BME280;33123;50.118;10.272;2023-02-10T06:33:44;99585.94;;;0.03;64.41
47374;BME280;33123;50.118;10.272;2023-02-10T06:36:11;99600.41;;;0.05;64.12
47374;BME280;33123;50.118;10.272;2023-02-10T06:38:38;99601.94;;;0.08;64.46
47374;BME280;33123;50.118;10.272;2023-02-10T06:41:05;99595.78;;;0.09;63.18
47374;BME280;33123;50.118;10.272;2023-02-10T06:43:32;99601.53;;;0.12;63.38
47374;BME280;33123;50.118;10.272;2023-02-10T06:46:00;99598.81;;;0.14;62.60
47374;BME280;33123;50.118;10.272;2023-02-10T06:48:27;99604.81;;;0.14;63.56
47374;BME280;33123;50.118;10.272;2023-02-10T06:50:53;99606.34;;;0.17;63.02
47374;BME280;33123;50.118;10.272;2023-02-10T06:53:20;99611.91;;;0.22;63.13
47374;BME280;33123;50.118;10.272;2023-02-10T06:55:47;99612.63;;;0.24;64.14
47374;BME280;33123;50.118;10.272;2023-02-10T06:58:14;99620.81;;;0.29;63.75
47374;BME280;33123;50.118;10.272;2023-02-10T07:00:41;99617.94;;;0.32;63.23
47374;BME280;33123;50.118;10.272;2023-02-10T07:03:11;99610.88;;;0.34;63.11
47374;BME280;33123;50.118;10.272;2023-02-10T07:05:39;99613.47;;;0.34;62.50
47374;BME280;33123;50.118;10.272;2023-02-10T07:08:05;99616.16;;;0.33;63.15
47374;BME280;33123;50.118;10.272;2023-02-10T07:10:32;99619.19;;;0.28;63.72
47374;BME280;33123;50.118;10.272;2023-02-10T07:12:59;99620.13;;;0.27;64.41
47374;BME280;33123;50.118;10.272;2023-02-10T07:15:26;99621.78;;;0.28;64.38
47374;BME280;33123;50.118;10.272;2023-02-10T07:17:52;99627.34;;;0.23;63.50
47374;BME280;33123;50.118;10.272;2023-02-10T07:20:21;99625.59;;;0.24;63.04
47374;BME280;33123;50.118;10.272;2023-02-10T07:22:48;99622.03;;;0.25;64.14
47374;BME280;33123;50.118;10.272;2023-02-10T07:25:15;99629.94;;;0.23;63.83
47374;BME280;33123;50.118;10.272;2023-02-10T07:27:42;99633.09;;;0.27;63.88
47374;BME280;33123;50.118;10.272;2023-02-10T07:30:10;99626.69;;;0.31;63.18
47374;BME280;33123;50.118;10.272;2023-02-10T07:32:37;99638.44;;;0.35;63.58
47374;BME280;33123;50.118;10.272;2023-02-10T07:35:04;99636.94;;;0.42;64.41
47374;BME280;33123;50.118;10.272;2023-02-10T07:37:32;99640.63;;;0.49;64.50
47374;BME280;33123;50.118;10.272;2023-02-10T07:39:58;99649.28;;;0.60;63.94
47374;BME280;33123;50.118;10.272;2023-02-10T07:42:25;99653.91;;;0.66;63.67
47374;BME280;33123;50.118;10.272;2023-02-10T07:44:51;99649.16;;;0.71;62.95
47374;BME280;33123;50.118;10.272;2023-02-10T07:47:18;99639.59;;;0.71;63.03
47374;BME280;33123;50.118;10.272;2023-02-10T07:49:45;99643.97;;;0.61;62.94
47374;BME280;33123;50.118;10.272;2023-02-10T07:52:11;99644.34;;;0.66;63.33
47374;BME280;33123;50.118;10.272;2023-02-10T07:54:39;99643.00;;;0.62;63.14
47374;BME280;33123;50.118;10.272;2023-02-10T07:57:06;99640.69;;;0.69;62.63
47374;BME280;33123;50.118;10.272;2023-02-10T07:59:32;99657.50;;;0.74;63.88
47374;BME280;33123;50.118;10.272;2023-02-10T08:01:59;99652.44;;;0.83;62.86
47374;BME280;33123;50.118;10.272;2023-02-10T08:04:26;99660.25;;;0.92;62.79
47374;BME280;33123;50.118;10.272;2023-02-10T08:06:52;99663.09;;;0.99;62.50
47374;BME280;33123;50.118;10.272;2023-02-10T08:09:21;99661.75;;;1.04;62.09
47374;BME280;33123;50.118;10.272;2023-02-10T08:11:49;99664.75;;;1.10;61.82
47374;BME280;33123;50.118;10.272;2023-02-10T08:14:16;99668.06;;;1.12;61.82
47374;BME280;33123;50.118;10.272;2023-02-10T08:16:42;99670.91;;;1.18;60.85
47374;BME280;33123;50.118;10.272;2023-02-10T08:19:09;99674.31;;;1.19;60.82
47374;BME280;33123;50.118;10.272;2023-02-10T08:21:35;99671.06;;;1.17;61.50
47374;BME280;33123;50.118;10.272;2023-02-10T08:24:02;99670.22;;;1.16;61.57
47374;BME280;33123;50.118;10.272;2023-02-10T08:26:29;99674.59;;;1.16;61.50
47374;BME280;33123;50.118;10.272;2023-02-10T08:28:57;99659.00;;;1.16;62.03
47374;BME280;33123;50.118;10.272;2023-02-10T08:31:24;99668.03;;;1.21;61.51
47374;BME280;33123;50.118;10.272;2023-02-10T08:33:51;99662.97;;;1.20;60.73
47374;BME280;33123;50.118;10.272;2023-02-10T08:36:19;99672.13;;;1.24;61.00
47374;BME280;33123;50.118;10.272;2023-02-10T08:38:48;99670.75;;;1.20;61.38
47374;BME280;33123;50.118;10.272;2023-02-10T08:41:16;99667.47;;;1.27;61.36
47374;BME280;33123;50.118;10.272;2023-02-10T08:43:43;99677.34;;;1.34;61.38
47374;BME280;33123;50.118;10.272;2023-02-10T08:46:12;99683.34;;;1.34;60.66
47374;BME280;33123;50.118;10.272;2023-02-10T08:48:39;99674.59;;;1.35;61.48
47374;BME280;33123;50.118;10.272;2023-02-10T08:51:07;99673.88;;;1.43;61.70
47374;BME280;33123;50.118;10.272;2023-02-10T08:53:34;99678.25;;;1.52;61.16
47374;BME280;33123;50.118;10.272;2023-02-10T08:56:02;99680.84;;;1.62;61.87
47374;BME280;33123;50.118;10.272;2023-02-10T08:58:29;99648.31;;;1.48;60.80
47374;BME280;33123;50.118;10.272;2023-02-10T09:00:56;99683.16;;;1.74;60.55
47374;BME280;33123;50.118;10.272;2023-02-10T09:03:24;99685.75;;;1.74;60.53
47374;BME280;33123;50.118;10.272;2023-02-10T09:05:51;99687.22;;;1.77;60.46
47374;BME280;33123;50.118;10.272;2023-02-10T09:08:18;99691.34;;;1.70;60.54
47374;BME280;33123;50.118;10.272;2023-02-10T09:10:45;99684.78;;;1.75;60.64
47374;BME280;33123;50.118;10.272;2023-02-10T09:13:12;99688.75;;;1.70;60.87
47374;BME280;33123;50.118;10.272;2023-02-10T09:15:41;99701.91;;;1.78;60.70
47374;BME280;33123;50.118;10.272;2023-02-10T09:18:08;99694.63;;;1.72;61.30
47374;BME280;33123;50.118;10.272;2023-02-10T09:20:37;99708.44;;;1.82;61.31
47374;BME280;33123;50.118;10.272;2023-02-10T09:23:03;99701.59;;;1.81;61.37
47374;BME280;33123;50.118;10.272;2023-02-10T09:25:30;99699.41;;;1.86;60.77
47374;BME280;33123;50.118;10.272;2023-02-10T09:27:57;99701.75;;;1.79;61.26
47374;BME280;33123;50.118;10.272;2023-02-10T09:30:25;99701.31;;;1.84;61.55
47374;BME280;33123;50.118;10.272;2023-02-10T09:32:51;99705.56;;;1.85;61.42
47374;BME280;33123;50.118;10.272;2023-02-10T09:35:18;99698.84;;;1.82;61.83
47374;BME280;33123;50.118;10.272;2023-02-10T09:37:47;99701.56;;;1.91;61.40
47374;BME280;33123;50.118;10.272;2023-02-10T09:40:16;99705.09;;;1.99;61.43
47374;BME280;33123;50.118;10.272;2023-02-10T09:42:54;99706.31;;;2.05;61.32
47374;BME280;33123;50.118;10.272;2023-02-10T09:45:26;99704.53;;;2.05;60.61
47374;BME280;33123;50.118;10.272;2023-02-10T09:48:00;99711.50;;;2.15;60.61
47374;BME280;33123;50.118;10.272;2023-02-10T09:50:42;99724.06;;;2.19;60.10
47374;BME280;33123;50.118;10.272;2023-02-10T09:53:17;99712.94;;;2.27;60.35
47374;BME280;33123;50.118;10.272;2023-02-10T09:55:48;99719.25;;;2.34;59.98
47374;BME280;33123;50.118;10.272;2023-02-10T09:58:21;99720.56;;;2.38;59.61
47374;BME280;33123;50.118;10.272;2023-02-10T10:00:54;99720.00;;;2.44;59.27
47374;BME280;33123;50.118;10.272;2023-02-10T10:03:28;99724.38;;;2.44;59.35
47374;BME280;33123;50.118;10.272;2023-02-10T10:06:08;99700.72;;;2.37;59.66
47374;BME280;33123;50.118;10.272;2023-02-10T10:08:45;99696.13;;;2.49;59.94
47374;BME280;33123;50.118;10.272;2023-02-10T10:11:23;99733.00;;;2.72;58.99
47374;BME280;33123;50.118;10.272;2023-02-10T10:13:51;99734.09;;;2.79;58.63
47374;BME280;33123;50.118;10.272;2023-02-10T10:16:25;99735.41;;;2.83;58.01
47374;BME280;33123;50.118;10.272;2023-02-10T10:19:05;99735.94;;;2.86;58.43
47374;BME280;33123;50.118;10.272;2023-02-10T10:21:43;99742.22;;;2.94;59.01
47374;BME280;33123;50.118;10.272;2023-02-10T10:24:26;99740.13;;;2.97;58.18
47374;BME280;33123;50.118;10.272;2023-02-10T10:27:06;99735.31;;;3.02;58.57
47374;BME280;33123;50.118;10.272;2023-02-10T10:29:43;99736.94;;;3.03;58.82
47374;BME280;33123;50.118;10.272;2023-02-10T10:32:15;99749.09;;;3.12;59.01
47374;BME280;33123;50.118;10.272;2023-02-10T10:34:48;99745.59;;;3.22;58.27
47374;BME280;33123;50.118;10.272;2023-02-10T10:37:19;99746.56;;;3.21;57.81
47374;BME280;33123;50.118;10.272;2023-02-10T10:39:48;99746.44;;;3.22;57.80
47374;BME280;33123;50.118;10.272;2023-02-10T10:42:20;99747.16;;;3.14;57.90
47374;BME280;33123;50.118;10.272;2023-02-10T10:44:49;99735.97;;;3.04;57.79
47374;BME280;33123;50.118;10.272;2023-02-10T10:47:20;99734.88;;;3.07;57.83
47374;BME280;33123;50.118;10.272;2023-02-10T10:49:52;99735.38;;;3.10;58.46
47374;BME280;33123;50.118;10.272;2023-02-10T10:52:25;99702.69;;;2.98;58.05
47374;BME280;33123;50.118;10.272;2023-02-10T10:54:55;99722.59;;;3.17;57.96
47374;BME280;33123;50.118;10.272;2023-02-10T10:57:23;99717.06;;;3.20;57.89
47374;BME280;33123;50.118;10.272;2023-02-10T10:59:54;99714.63;;;3.18;57.84
47374;BME280;33123;50.118;10.272;2023-02-10T11:02:23;99715.72;;;3.16;57.64
47374;BME280;33123;50.118;10.272;2023-02-10T11:05:00;99711.88;;;3.02;58.05
47374;BME280;33123;50.118;10.272;2023-02-10T11:07:27;99710.63;;;3.06;58.25
47374;BME280;33123;50.118;10.272;2023-02-10T11:09:58;99706.94;;;2.99;58.19
47374;BME280;33123;50.118;10.272;2023-02-10T11:12:29;99712.16;;;2.99;58.81
47374;BME280;33123;50.118;10.272;2023-02-10T11:14:58;99689.69;;;2.98;58.39
47374;BME280;33123;50.118;10.272;2023-02-10T11:17:30;99708.66;;;3.08;58.21
47374;BME280;33123;50.118;10.272;2023-02-10T11:19:59;99707.84;;;3.08;57.99
47374;BME280;33123;50.118;10.272;2023-02-10T11:22:27;99681.28;;;3.04;58.19
47374;BME280;33123;50.118;10.272;2023-02-10T11:24:55;99708.53;;;3.28;58.24
47374;BME280;33123;50.118;10.272;2023-02-10T11:27:24;99703.56;;;3.16;58.24
47374;BME280;33123;50.118;10.272;2023-02-10T11:29:52;99702.25;;;3.21;59.00
47374;BME280;33123;50.118;10.272;2023-02-10T11:32:21;99708.53;;;3.28;58.13
47374;BME280;33123;50.118;10.272;2023-02-10T11:34:50;99706.59;;;3.30;57.98
47374;BME280;33123;50.118;10.272;2023-02-10T11:37:23;99709.84;;;3.14;58.20
47374;BME280;33123;50.118;10.272;2023-02-10T11:39:53;99712.91;;;3.27;57.88
47374;BME280;33123;50.118;10.272;2023-02-10T11:42:23;99704.94;;;3.29;58.11
47374;BME280;33123;50.118;10.272;2023-02-10T11:44:53;99700.31;;;3.40;57.96
47374;BME280;33123;50.118;10.272;2023-02-10T11:47:22;99706.38;;;3.23;58.37
47374;BME280;33123;50.118;10.272;2023-02-10T11:49:49;99704.34;;;3.35;58.14
47374;BME280;33123;50.118;10.272;2023-02-10T11:52:17;99697.56;;;3.42;57.79
47374;BME280;33123;50.118;10.272;2023-02-10T11:54:47;99708.88;;;3.51;57.90
47374;BME280;33123;50.118;10.272;2023-02-10T11:57:21;99709.75;;;3.59;57.90
47374;BME280;33123;50.118;10.272;2023-02-10T12:00:19;99702.00;;;3.50;58.12
47374;BME280;33123;50.118;10.272;2023-02-10T12:03:21;99708.78;;;3.60;58.27
47374;BME280;33123;50.118;10.272;2023-02-10T12:05:58;99699.28;;;3.51;58.03
47374;BME280;33123;50.118;10.272;2023-02-10T12:08:37;99699.25;;;3.69;57.13
47374;BME280;33123;50.118;10.272;2023-02-10T12:11:13;99700.94;;;3.60;57.08
47374;BME280;33123;50.118;10.272;2023-02-10T12:13:49;99713.41;;;3.66;57.01
47374;BME280;33123;50.118;10.272;2023-02-10T12:16:24;99695.53;;;3.54;57.39
47374;BME280;33123;50.118;10.272;2023-02-10T12:18:58;99700.81;;;3.62;57.59
47374;BME280;33123;50.118;10.272;2023-02-10T12:22:04;99695.91;;;3.59;57.60
47374;BME280;33123;50.118;10.272;2023-02-10T12:24:57;99693.25;;;3.77;57.91
47374;BME280;33123;50.118;10.272;2023-02-10T12:27:37;99690.81;;;3.75;57.67
47374;BME280;33123;50.118;10.272;2023-02-10T12:30:21;99687.03;;;3.95;57.50
47374;BME280;33123;50.118;10.272;2023-02-10T12:33:00;99692.13;;;4.05;57.26
47374;BME280;33123;50.118;10.272;2023-02-10T12:35:41;99686.06;;;4.31;56.71
47374;BME280;33123;50.118;10.272;2023-02-10T12:38:25;99683.97;;;4.42;56.29
47374;BME280;33123;50.118;10.272;2023-02-10T12:41:03;99684.78;;;4.43;55.53
47374;BME280;33123;50.118;10.272;2023-02-10T12:43:45;99676.50;;;4.47;55.26
47374;BME280;33123;50.118;10.272;2023-02-10T12:46:24;99673.75;;;4.57;55.40
47374;BME280;33123;50.118;10.272;2023-02-10T12:49:08;99668.19;;;4.60;55.06
47374;BME280;33123;50.118;10.272;2023-02-10T12:51:48;99645.78;;;4.41;55.19
47374;BME280;33123;50.118;10.272;2023-02-10T12:54:20;99661.53;;;4.66;55.59
47374;BME280;33123;50.118;10.272;2023-02-10T12:56:53;99669.94;;;4.43;55.57
47374;BME280;33123;50.118;10.272;2023-02-10T12:59:23;99676.47;;;4.39;55.79
47374;BME280;33123;50.118;10.272;2023-02-10T13:01:54;99671.63;;;4.61;55.18
47374;BME280;33123;50.118;10.272;2023-02-10T13:04:26;99665.28;;;4.71;55.11
47374;BME280;33123;50.118;10.272;2023-02-10T13:06:57;99676.38;;;4.65;55.12